Time;durP1;ratioP1;P1;durP2;ratioP2;P2;SDS_P1;SDS_P2;PMS_P1;PMS_P2;Temp;Humidity;BMP_temperature;BMP_pressure;BME280_temperature;BME280_humidity;BME280_pressure;Samples;Min_cycle;Max_cycle;Signal;HPM_P1;HPM_P2
2021/11/12 00:12:30;;;;;;;19.24;12.04;;;;;;;1.64;63.88;101936.64;458143;112;922701;-80
2021/11/12 00:13:31;;;;;;;16.03;12.46;;;;;;;1.65;63.86;101921.36;463772;113;922602;-79
2021/11/12 00:14:35;;;;;;;14.77;12.93;;;;;;;1.65;63.84;101927.56;462841;113;923055;-79
2021/11/12 00:15:48;;;;;;;16.72;12.54;;;;;;;1.64;63.77;101925.88;463270;113;922955;-79
2021/11/12 00:16:56;;;;;;;14.13;12.27;;;;;;;1.64;63.74;101915.13;462586;113;922886;-79
2021/11/12 00:18:01;;;;;;;17.04;12.94;;;;;;;1.64;63.77;101923.19;463497;113;922519;-80
2021/11/12 00:19:07;;;;;;;15.37;13.24;;;;;;;1.63;63.71;101923.31;460166;113;922909;-80
2021/11/12 00:20:11;;;;;;;14.54;12.07;;;;;;;1.60;63.70;101912.79;462352;112;922742;-79
2021/11/12 00:21:15;;;;;;;17.75;12.49;;;;;;;1.59;63.82;101908.42;461088;112;930444;-79
2021/11/12 00:22:23;;;;;;;14.57;12.63;;;;;;;1.59;63.90;101901.20;463028;112;922524;-79
2021/11/12 00:23:30;;;;;;;17.81;12.94;;;;;;;1.60;63.83;101908.27;453673;115;922549;-80
2021/11/12 00:24:33;;;;;;;17.74;12.55;;;;;;;1.60;63.83;101902.03;446886;117;922683;-80
2021/11/12 00:25:37;;;;;;;16.80;12.19;;;;;;;1.61;63.88;101895.69;445377;116;922733;-80
2021/11/12 00:26:41;;;;;;;18.45;12.31;;;;;;;1.60;63.78;101897.52;447968;117;922831;-79
2021/11/12 00:27:46;;;;;;;19.14;13.88;;;;;;;1.60;63.88;101899.34;448095;116;922678;-79
2021/11/12 00:28:52;;;;;;;14.17;12.28;;;;;;;1.60;63.88;101899.34;440455;117;923062;-79
2021/11/12 00:31:29;;;;;;;16.07;13.53;;;;;;;1.61;63.89;101890.31;463035;113;922602;-79
2021/11/12 00:35:15;;;;;;;15.78;13.55;;;;;;;1.54;63.91;101889.98;463754;112;922666;-80
2021/11/12 00:38:52;;;;;;;15.58;12.99;;;;;;;1.54;64.11;101886.44;462154;113;922227;-79
2021/11/12 00:39:58;;;;;;;17.66;14.18;;;;;;;1.52;64.10;101881.17;463545;113;922561;-79
2021/11/12 00:41:21;;;;;;;16.38;13.02;;;;;;;1.51;64.19;101881.29;462354;113;922556;-80
2021/11/12 00:42:27;;;;;;;15.99;13.01;;;;;;;1.51;64.31;101876.77;453473;115;922952;-79
2021/11/12 00:43:31;;;;;;;15.36;12.34;;;;;;;1.53;64.29;101871.28;452529;116;922524;-80
2021/11/12 00:44:37;;;;;;;15.81;12.65;;;;;;;1.51;64.35;101876.77;453968;116;923121;-79
2021/11/12 00:45:48;;;;;;;16.13;12.29;;;;;;;1.53;64.31;101877.52;452973;115;922490;-79
2021/11/12 00:49:13;;;;;;;15.14;12.21;;;;;;;1.53;64.35;101874.83;455282;114;922652;-79
2021/11/12 00:52:42;;;;;;;13.46;11.59;;;;;;;1.55;64.39;101877.37;449856;116;922134;-80
2021/11/12 00:54:55;;;;;;;14.57;10.65;;;;;;;1.56;64.37;101876.39;453213;116;922283;-80
2021/11/12 00:55:59;;;;;;;11.98;10.43;;;;;;;1.55;64.27;101877.37;445127;117;922415;-80
2021/11/12 00:57:03;;;;;;;11.20;9.96;;;;;;;1.54;64.32;101873.86;455430;114;929713;-81
2021/11/12 00:58:09;;;;;;;12.68;10.56;;;;;;;1.52;64.31;101870.42;454350;116;923225;-79
2021/11/12 00:59:12;;;;;;;11.93;10.74;;;;;;;1.50;64.31;101876.89;454178;115;922771;-80
2021/11/12 01:00:17;;;;;;;11.38;10.01;;;;;;;1.49;64.38;101878.72;454792;115;922379;-79
2021/11/12 01:01:22;;;;;;;10.86;9.65;;;;;;;1.49;64.48;101880.58;454250;115;922691;-80
2021/11/12 01:02:28;;;;;;;13.43;9.76;;;;;;;1.50;64.52;101884.95;454064;115;930704;-79
2021/11/12 01:03:32;;;;;;;11.01;9.78;;;;;;;1.49;64.43;101873.34;454558;115;922313;-80
2021/11/12 01:04:36;;;;;;;10.37;9.32;;;;;;;1.50;64.50;101874.20;454483;115;922694;-80
2021/11/12 01:05:41;;;;;;;10.21;9.24;;;;;;;1.50;64.54;101879.58;454980;115;922568;-80
2021/11/12 01:06:46;;;;;;;11.10;9.99;;;;;;;1.50;64.48;101869.69;447537;117;922027;-79
2021/11/12 01:07:50;;;;;;;9.59;8.59;;;;;;;1.51;64.47;101870.55;449081;116;922379;-79
2021/11/12 01:08:53;;;;;;;9.92;8.86;;;;;;;1.51;64.53;101867.85;453996;114;922584;-80
2021/11/12 01:09:58;;;;;;;10.74;9.62;;;;;;;1.51;64.58;101865.16;451846;116;922628;-80
2021/11/12 01:11:04;;;;;;;10.02;8.55;;;;;;;1.52;64.62;101872.25;451331;117;922663;-78
2021/11/12 01:12:09;;;;;;;10.55;9.36;;;;;;;1.53;64.64;101868.59;454803;115;922072;-79
2021/11/12 01:13:13;;;;;;;11.49;9.81;;;;;;;1.53;64.58;101857.84;454953;115;922222;-79
2021/11/12 01:14:20;;;;;;;14.89;12.15;;;;;;;1.54;64.56;101859.55;443217;117;922628;-79
2021/11/12 01:15:25;;;;;;;15.72;12.17;;;;;;;1.54;64.63;101859.55;452068;113;922233;-79
2021/11/12 01:16:30;;;;;;;12.76;11.02;;;;;;;1.55;64.64;101858.55;463353;113;922754;-80
2021/11/12 01:17:34;;;;;;;16.04;11.82;;;;;;;1.55;64.58;101858.55;463254;112;922185;-79
2021/11/12 01:18:39;;;;;;;16.97;12.63;;;;;;;1.54;64.58;101860.41;463231;113;922256;-80
2021/11/12 01:19:43;;;;;;;14.42;12.35;;;;;;;1.55;64.64;101859.41;463036;113;922689;-81
2021/11/12 01:20:48;;;;;;;18.27;13.45;;;;;;;1.55;64.65;101856.72;464922;113;922217;-80
2021/11/12 01:21:51;;;;;;;16.47;13.18;;;;;;;1.57;64.67;101859.29;464149;113;922285;-80
2021/11/12 01:22:56;;;;;;;19.00;14.51;;;;;;;1.58;64.62;101856.48;463141;113;922417;-80
2021/11/12 01:24:00;;;;;;;16.23;13.85;;;;;;;1.58;64.55;101853.80;463288;113;922268;-80
2021/11/12 01:25:06;;;;;;;16.54;14.13;;;;;;;1.58;64.59;101858.31;463885;112;922496;-80
2021/11/12 01:26:11;;;;;;;19.69;13.18;;;;;;;1.57;64.61;101853.91;463501;113;922221;-78
2021/11/12 01:27:15;;;;;;;14.42;12.51;;;;;;;1.57;64.58;101845.85;462805;113;922434;-79
2021/11/12 01:28:19;;;;;;;16.56;12.85;;;;;;;1.55;64.63;101847.80;461266;113;922447;-80
2021/11/12 01:29:23;;;;;;;16.15;13.41;;;;;;;1.56;64.68;101854.89;462071;113;922594;-82
2021/11/12 01:30:29;;;;;;;16.84;12.86;;;;;;;1.56;64.70;101850.37;463301;113;922747;-78
2021/11/12 01:31:33;;;;;;;17.29;13.84;;;;;;;1.56;64.69;101850.37;461711;113;922191;-81
2021/11/12 01:32:37;;;;;;;18.65;14.60;;;;;;;1.56;64.76;101847.69;462021;113;922388;-80
2021/11/12 01:33:41;;;;;;;21.22;14.45;;;;;;;1.57;64.82;101843.16;455546;115;922308;-80
2021/11/12 01:34:51;;;;;;;22.68;15.90;;;;;;;1.58;64.85;101847.56;455519;115;922263;-81
2021/11/12 01:36:02;;;;;;;21.16;14.97;;;;;;;1.59;64.90;101850.14;455246;116;930324;-81
2021/11/12 01:37:02;;;;;;;25.04;16.26;;;;;;;1.61;64.84;101847.30;455166;116;930271;-81
2021/11/12 01:38:06;;;;;;;23.79;17.33;;;;;;;1.62;64.81;101854.39;454452;115;922476;-80
2021/11/12 01:39:13;;;;;;;23.57;17.24;;;;;;;1.62;64.75;101851.70;455848;115;922441;-78
2021/11/12 01:40:20;;;;;;;42.63;20.72;;;;;;;1.61;64.74;101845.47;447604;117;922114;-81
2021/11/12 01:41:25;;;;;;;32.73;20.58;;;;;;;1.60;64.71;101846.44;449351;117;922726;-80
2021/11/12 01:42:42;;;;;;;39.51;20.87;;;;;;;1.58;64.73;101845.73;449660;116;922366;-80
2021/11/12 01:44:03;;;;;;;29.02;18.09;;;;;;;1.68;64.76;101843.14;467167;110;947062;-79
2021/11/12 01:45:10;;;;;;;19.73;15.49;;;;;;;1.56;64.80;101841.45;458720;114;922456;-80
2021/11/12 01:47:31;;;;;;;27.11;17.78;;;;;;;1.55;64.90;101840.59;458806;114;922439;-80
2021/11/12 01:49:54;;;;;;;24.22;17.18;;;;;;;1.55;65.02;101835.22;457723;114;922776;-80
2021/11/12 01:51:11;;;;;;;24.67;16.84;;;;;;;1.59;65.13;101838.53;459318;114;922192;-80
2021/11/12 01:53:27;;;;;;;27.17;18.53;;;;;;;1.60;65.09;101819.56;458535;114;922812;-81
2021/11/12 01:55:49;;;;;;;29.06;17.68;;;;;;;1.62;65.14;101827.51;458150;114;922521;-80
2021/11/12 02:00:13;;;;;;;11.49;10.03;;;;;;;1.67;65.33;101819.91;459491;114;922250;-80
2021/11/12 02:01:17;;;;;;;11.21;10.15;;;;;;;1.69;65.30;101804.52;459980;114;922091;-79
2021/11/12 02:02:24;;;;;;;10.43;9.43;;;;;;;1.70;65.26;101803.55;459134;114;922752;-79
2021/11/12 02:03:30;;;;;;;10.97;9.40;;;;;;;1.72;65.25;101811.46;459902;114;922382;-79
2021/11/12 02:04:34;;;;;;;9.92;9.05;;;;;;;1.73;65.24;101800.59;459147;114;922342;-78
2021/11/12 02:05:38;;;;;;;8.61;7.80;;;;;;;1.76;65.21;101812.94;458436;114;922526;-78
2021/11/12 02:06:42;;;;;;;8.41;7.64;;;;;;;1.77;65.18;101807.41;459048;114;923811;-80
2021/11/12 02:07:47;;;;;;;7.94;7.10;;;;;;;1.76;65.09;101805.73;458196;114;922423;-80
2021/11/12 02:08:53;;;;;;;8.85;7.82;;;;;;;1.76;65.06;101804.87;447655;116;930321;-79
2021/11/12 02:09:57;;;;;;;8.50;7.74;;;;;;;1.76;65.17;101805.73;450034;114;922450;-77
2021/11/12 02:11:00;;;;;;;8.18;7.48;;;;;;;1.77;65.29;101810.09;459018;114;922375;-80
2021/11/12 02:12:32;;;;;;;9.49;8.64;;;;;;;1.79;65.24;101808.14;459378;114;922433;-79
2021/11/12 02:13:16;;;;;;;8.69;7.89;;;;;;;1.80;65.22;101807.17;451039;114;922920;-79
2021/11/12 02:14:20;;;;;;;15.11;8.71;;;;;;;1.81;65.30;101808.88;457642;114;922515;-77
2021/11/12 02:15:24;;;;;;;9.85;8.92;;;;;;;1.85;65.33;101809.47;442791;119;922604;-79
2021/11/12 02:16:34;;;;;;;11.77;9.43;;;;;;;1.86;65.19;101812.03;448172;116;923398;-80
2021/11/12 02:17:36;;;;;;;10.13;9.20;;;;;;;1.86;65.25;101803.97;450776;114;923098;-78
2021/11/12 02:18:43;;;;;;;10.19;9.31;;;;;;;1.87;65.31;101808.38;457778;113;922640;-77
2021/11/12 02:19:51;;;;;;;9.69;8.66;;;;;;;1.89;65.15;101806.38;457680;114;922628;-80
2021/11/12 02:21:10;;;;;;;10.37;9.45;;;;;;;1.90;64.95;101809.94;458305;114;922476;-79
2021/11/12 02:22:09;;;;;;;10.16;9.25;;;;;;;1.89;65.16;101802.84;458505;114;922489;-80
2021/11/12 02:23:13;;;;;;;9.71;8.82;;;;;;;1.89;65.18;101808.22;459432;114;922654;-79
2021/11/12 02:24:17;;;;;;;11.06;9.96;;;;;;;1.88;65.13;101804.67;459213;114;922990;-80
2021/11/12 02:25:27;;;;;;;9.74;8.83;;;;;;;1.87;65.07;101799.45;457429;114;922592;-79
2021/11/12 02:26:31;;;;;;;9.93;8.88;;;;;;;1.86;65.06;101806.66;457037;114;922359;-79
2021/11/12 02:27:41;;;;;;;10.36;8.66;;;;;;;1.84;65.03;101799.69;458223;114;922994;-79
2021/11/12 02:28:44;;;;;;;9.84;8.86;;;;;;;1.83;65.06;101803.35;457925;114;923117;-78
2021/11/12 02:29:52;;;;;;;10.61;9.08;;;;;;;1.80;65.04;101800.94;457818;114;922576;-79
2021/11/12 02:30:55;;;;;;;10.34;8.68;;;;;;;1.79;65.07;101796.53;458416;114;922616;-77
2021/11/12 02:31:59;;;;;;;11.59;9.71;;;;;;;1.77;65.23;101787.73;457511;114;922527;-78
2021/11/12 02:33:07;;;;;;;10.77;9.41;;;;;;;1.77;65.32;101795.80;457116;114;930164;-81
2021/11/12 02:34:13;;;;;;;9.68;8.84;;;;;;;1.77;65.28;101788.59;457305;114;922568;-79
2021/11/12 02:35:17;;;;;;;10.02;9.12;;;;;;;1.76;65.28;101789.59;457566;114;922712;-79
2021/11/12 02:36:21;;;;;;;10.61;9.68;;;;;;;1.78;65.38;101786.75;457871;114;922403;-78
2021/11/12 02:37:28;;;;;;;10.85;9.78;;;;;;;1.79;65.40;101789.33;457766;114;922857;-79
2021/11/12 02:38:35;;;;;;;11.68;9.39;;;;;;;1.81;65.41;101794.58;457566;112;922773;-79
2021/11/12 02:39:38;;;;;;;11.68;10.47;;;;;;;1.82;65.41;101789.05;458068;114;922510;-80
2021/11/12 02:40:42;;;;;;;11.78;10.68;;;;;;;1.81;65.35;101792.75;459241;114;922578;-80
2021/11/12 02:41:46;;;;;;;10.60;8.93;;;;;;;1.82;65.33;101789.05;457331;114;922542;-78
2021/11/12 02:42:51;;;;;;;10.86;9.23;;;;;;;1.81;65.29;101786.52;457110;114;931016;-79
2021/11/12 02:43:55;;;;;;;10.27;9.40;;;;;;;1.79;65.30;101778.56;456047;114;922729;-80
2021/11/12 02:44:59;;;;;;;10.10;9.18;;;;;;;1.80;65.38;101776.73;454824;115;922727;-79
2021/11/12 02:46:05;;;;;;;10.98;9.50;;;;;;;1.78;65.38;101779.55;456162;115;922596;-79
2021/11/12 02:47:12;;;;;;;9.79;8.77;;;;;;;1.78;65.38;101776.85;455930;115;922597;-78
2021/11/12 02:48:17;;;;;;;8.81;7.87;;;;;;;1.76;65.40;101777.98;454276;115;922754;-79
2021/11/12 02:49:20;;;;;;;16.86;7.86;;;;;;;1.76;65.48;101780.67;456008;114;923219;-79
2021/11/12 02:50:25;;;;;;;9.56;8.72;;;;;;;1.73;65.51;101771.02;455839;115;930313;-78
2021/11/12 02:51:31;;;;;;;7.99;7.21;;;;;;;1.73;65.57;101771.02;456363;115;922601;-78
2021/11/12 02:52:36;;;;;;;8.71;7.94;;;;;;;1.73;65.62;101768.33;455833;115;922579;-79
2021/11/12 02:53:40;;;;;;;9.48;7.81;;;;;;;1.73;65.62;101770.16;454971;115;922628;-80
2021/11/12 02:54:45;;;;;;;8.66;7.77;;;;;;;1.73;65.71;101764.78;455972;115;931031;-79
2021/11/12 02:55:49;;;;;;;10.56;8.02;;;;;;;1.73;65.78;101765.63;456183;115;922767;-79
2021/11/12 02:56:57;;;;;;;8.79;7.74;;;;;;;1.75;65.84;101770.89;455651;114;923147;-79
2021/11/12 02:57:59;;;;;;;9.67;8.79;;;;;;;1.76;65.89;101767.23;455570;115;922537;-79
2021/11/12 02:59:10;;;;;;;10.04;9.08;;;;;;;1.78;65.88;101766.09;455670;115;923090;-79
2021/11/12 03:00:20;;;;;;;11.24;9.80;;;;;;;1.79;65.84;101769.64;455195;115;923262;-77
2021/11/12 03:01:25;;;;;;;12.31;10.69;;;;;;;1.80;65.87;101765.98;454929;115;922668;-80
2021/11/12 03:02:31;;;;;;;12.88;11.64;;;;;;;1.80;65.74;101764.14;455112;115;922511;-78
2021/11/12 03:03:37;;;;;;;11.82;10.72;;;;;;;1.80;65.80;101757.91;454983;115;923146;-79
2021/11/12 03:04:41;;;;;;;12.98;11.71;;;;;;;1.78;65.86;101760.72;453837;115;922589;-79
2021/11/12 03:05:44;;;;;;;12.66;10.52;;;;;;;1.78;65.94;101752.66;455205;114;922509;-80
2021/11/12 03:06:49;;;;;;;13.01;10.53;;;;;;;1.79;65.97;101754.37;455569;115;922558;-80
2021/11/12 03:07:53;;;;;;;11.62;10.56;;;;;;;1.80;65.99;101745.33;455864;115;930403;-80
2021/11/12 03:08:59;;;;;;;11.01;10.09;;;;;;;1.81;66.04;101746.18;455417;114;922612;-78
2021/11/12 03:10:03;;;;;;;9.98;9.04;;;;;;;1.83;66.05;101750.42;454540;115;923345;-79
2021/11/12 03:11:06;;;;;;;10.14;9.16;;;;;;;1.85;66.00;101743.09;454470;115;922714;-79
2021/11/12 03:12:10;;;;;;;11.12;8.97;;;;;;;1.85;65.98;101745.78;454994;115;923252;-80
2021/11/12 03:13:14;;;;;;;8.82;7.97;;;;;;;1.84;66.00;101745.91;455329;114;922749;-79
2021/11/12 03:14:18;;;;;;;8.90;8.09;;;;;;;1.84;66.03;101737.84;455461;115;922638;-77
2021/11/12 03:15:22;;;;;;;9.18;8.28;;;;;;;1.86;66.11;101742.12;455103;115;922861;-78
2021/11/12 03:16:26;;;;;;;8.71;7.91;;;;;;;1.86;66.20;101742.12;455647;115;922662;-78
2021/11/12 03:17:30;;;;;;;9.25;8.19;;;;;;;1.89;66.20;101735.61;455510;114;922491;-79
2021/11/12 03:18:34;;;;;;;9.36;8.54;;;;;;;1.90;66.22;101737.32;455616;115;923025;-80
2021/11/12 03:19:39;;;;;;;13.76;9.44;;;;;;;1.90;66.20;101737.32;455211;115;922570;-77
2021/11/12 03:20:44;;;;;;;10.08;9.25;;;;;;;1.91;66.21;101733.66;455097;115;923011;-79
2021/11/12 03:21:48;;;;;;;10.11;9.21;;;;;;;1.92;66.26;101725.47;455856;114;923480;-79
2021/11/12 03:22:55;;;;;;;10.85;9.85;;;;;;;1.94;66.27;101726.16;455333;115;930561;-78
2021/11/12 03:25:10;;;;;;;10.54;9.57;;;;;;;1.96;66.17;101721.52;455238;114;922553;-80
2021/11/12 03:28:46;;;;;;;11.58;10.58;;;;;;;2.07;66.24;101705.31;464291;110;1196263;-78
2021/11/12 03:49:49;;;;;;;8.40;7.67;;;;;;;1.84;66.66;101675.98;459808;114;922104;-85
2021/11/12 03:50:14;;;;;;;8.32;7.64;;;;;;;1.81;66.85;101678.95;459928;114;923302;-82
2021/11/12 04:00:34;;;;;;;8.16;7.44;;;;;;;1.86;67.44;101676.72;460030;114;922601;-83
2021/11/12 04:01:47;;;;;;;8.15;7.47;;;;;;;1.88;67.46;101667.52;458632;114;922605;-78
2021/11/12 04:06:01;;;;;;;8.53;7.53;;;;;;;1.94;67.50;101661.62;459960;115;922683;-83
2021/11/12 04:17:38;;;;;;;8.60;7.37;;;;;;;1.96;67.77;101656.11;472269;110;923210;-83
2021/11/12 04:19:06;;;;;;;8.59;7.84;;;;;;;1.94;67.93;101653.55;468660;110;923525;-85
2021/11/12 04:20:17;;;;;;;8.63;7.91;;;;;;;1.96;67.99;101654.28;467092;110;922960;-87
2021/11/12 04:40:45;;;;;;;12.73;11.54;;;;;;;2.13;68.33;101625.05;471956;110;922254;-81
2021/11/12 05:03:05;;;;;;;10.26;9.26;;;;;;;2.23;68.54;101612.48;469875;110;922658;-85
2021/11/12 05:11:23;;;;;;;9.48;8.56;;;;;;;2.60;68.72;101597.44;471504;110;923286;-84
2021/11/12 05:25:42;;;;;;;15.34;11.28;;;;;;;2.66;68.88;101591.50;470291;110;922471;-83
2021/11/12 05:43:44;;;;;;;8.29;7.51;;;;;;;2.66;69.83;101551.11;445773;116;922763;-85
2021/11/12 05:44:54;;;;;;;8.46;7.65;;;;;;;2.65;69.91;101552.09;468706;110;922824;-83
2021/11/12 05:46:02;;;;;;;9.04;7.44;;;;;;;2.66;69.96;101545.72;467406;110;922611;-84
2021/11/12 05:51:23;;;;;;;9.63;8.73;;;;;;;2.70;70.00;101549.83;471748;110;922569;-83
2021/11/12 05:55:50;;;;;;;9.32;8.31;;;;;;;2.77;70.16;101545.59;471773;110;922636;-83
2021/11/12 05:56:55;;;;;;;6.02;5.52;;;;;;;2.79;70.10;101537.38;469802;110;922685;-84
2021/11/12 05:57:59;;;;;;;6.79;6.07;;;;;;;2.79;70.09;101540.92;470740;110;930573;-83
2021/11/12 05:59:04;;;;;;;11.87;8.69;;;;;;;2.80;70.08;101531.01;461854;112;922580;-86
2021/11/12 06:00:12;;;;;;;9.03;8.12;;;;;;;2.81;70.15;101530.02;462573;112;922620;-86
2021/11/12 06:01:16;;;;;;;6.28;5.51;;;;;;;2.82;70.15;101524.47;462003;112;922856;-82
2021/11/12 06:02:20;;;;;;;5.33;4.85;;;;;;;2.83;70.19;101526.18;460535;112;922678;-84
2021/11/12 06:03:24;;;;;;;5.71;4.62;;;;;;;2.85;70.24;101521.52;470586;110;930422;-84
2021/11/12 06:04:28;;;;;;;7.98;5.29;;;;;;;2.86;70.23;101523.22;470730;110;922875;-86
2021/11/12 06:05:32;;;;;;;6.40;5.77;;;;;;;2.88;70.27;101520.36;470530;110;922664;-85
2021/11/12 06:06:36;;;;;;;5.91;5.34;;;;;;;2.91;70.26;101509.32;471442;110;922565;-83
2021/11/12 06:07:40;;;;;;;6.44;5.57;;;;;;;2.93;70.24;101516.25;470367;110;922693;-84
2021/11/12 06:08:44;;;;;;;6.72;5.68;;;;;;;2.97;70.24;101513.28;472598;110;922053;-84
2021/11/12 06:09:48;;;;;;;5.65;5.14;;;;;;;2.99;70.23;101516.66;472480;110;922068;-85
2021/11/12 06:10:52;;;;;;;4.75;4.30;;;;;;;3.01;70.24;101515.55;471835;110;922181;-84
2021/11/12 06:11:56;;;;;;;4.90;4.46;;;;;;;3.03;70.21;101512.72;472646;110;922064;-84
2021/11/12 06:13:00;;;;;;;5.02;4.57;;;;;;;3.06;70.20;101509.72;472424;110;922159;-84
2021/11/12 06:14:04;;;;;;;5.05;4.49;;;;;;;3.07;70.19;101503.34;470115;110;922551;-83
2021/11/12 06:15:09;;;;;;;6.54;5.02;;;;;;;3.11;70.26;101504.75;472068;110;922595;-82
2021/11/12 06:16:14;;;;;;;4.63;4.23;;;;;;;3.13;70.23;101500.93;470560;110;930497;-84
2021/11/12 06:17:18;;;;;;;4.90;4.19;;;;;;;3.15;70.16;101496.22;472959;110;922530;-82
2021/11/12 06:18:22;;;;;;;4.74;4.30;;;;;;;3.16;70.15;101497.93;470050;110;923094;-85
2021/11/12 06:19:26;;;;;;;5.28;4.68;;;;;;;3.18;70.18;101492.41;470634;110;922617;-84
2021/11/12 06:20:30;;;;;;;6.06;4.55;;;;;;;3.22;70.17;101493.81;470859;110;922560;-84
2021/11/12 06:21:34;;;;;;;6.05;4.93;;;;;;;3.24;70.17;101486.44;470279;110;930398;-86
2021/11/12 06:22:38;;;;;;;5.48;4.66;;;;;;;3.26;70.15;101482.59;470497;110;922590;-83
2021/11/12 06:23:42;;;;;;;6.35;5.53;;;;;;;3.29;70.11;101490.40;469984;110;922644;-87
2021/11/12 06:24:45;;;;;;;6.38;5.18;;;;;;;3.30;70.07;101483.17;470674;110;922496;-84
2021/11/12 06:25:49;;;;;;;6.00;4.31;;;;;;;3.33;70.08;101486.41;469842;110;922453;-84
2021/11/12 06:26:53;;;;;;;5.04;4.09;;;;;;;3.34;70.04;101490.81;469865;109;922399;-86
2021/11/12 06:27:57;;;;;;;4.69;4.21;;;;;;;3.37;70.03;101489.65;470638;110;922482;-83
2021/11/12 06:29:02;;;;;;;5.64;4.17;;;;;;;3.38;70.03;101485.97;470430;110;922442;-83
2021/11/12 06:30:07;;;;;;;5.46;4.08;;;;;;;3.41;70.04;101485.69;470756;110;922596;-83
2021/11/12 06:31:12;;;;;;;6.45;4.78;;;;;;;3.44;70.05;101482.69;471042;110;922414;-86
2021/11/12 06:32:16;;;;;;;5.09;4.37;;;;;;;3.47;70.04;101484.25;470310;110;922444;-85
2021/11/12 06:33:20;;;;;;;5.84;4.32;;;;;;;3.48;70.02;101481.39;470108;110;922567;-87
2021/11/12 06:34:24;;;;;;;6.61;5.25;;;;;;;3.50;69.98;101479.41;471188;110;922525;-84
2021/11/12 06:35:28;;;;;;;6.69;4.98;;;;;;;3.53;70.02;101475.58;470668;110;923154;-86
2021/11/12 06:36:32;;;;;;;5.35;4.74;;;;;;;3.56;69.99;101481.52;470933;110;922788;-84
2021/11/12 06:37:36;;;;;;;7.81;5.12;;;;;;;3.58;70.01;101474.14;472334;110;930556;-84
2021/11/12 06:38:40;;;;;;;5.69;5.08;;;;;;;3.62;69.98;101471.98;471102;110;922474;-87
2021/11/12 06:39:44;;;;;;;4.93;4.45;;;;;;;3.64;69.97;101473.52;469715;110;922465;-86
2021/11/12 06:40:50;;;;;;;5.81;5.13;;;;;;;3.68;69.98;101477.64;473316;110;922602;-84
2021/11/12 06:41:56;;;;;;;6.49;5.19;;;;;;;3.69;69.93;101473.92;469291;111;922963;-83
2021/11/12 06:49:20;;;;;;;5.79;4.77;;;;;;;3.82;69.92;101461.95;469759;110;922764;-84
2021/11/12 06:50:23;;;;;;;5.33;4.76;;;;;;;3.84;69.91;101462.66;471570;110;922736;-85
2021/11/12 06:51:27;;;;;;;5.84;4.80;;;;;;;3.86;69.95;101458.80;470626;110;922650;-86
2021/11/12 06:52:33;;;;;;;5.44;4.87;;;;;;;3.87;69.92;101465.89;469549;110;930634;-86
2021/11/12 06:53:37;;;;;;;6.69;4.84;;;;;;;3.90;69.95;101453.97;471204;110;922912;-84
2021/11/12 06:54:41;;;;;;;5.05;4.63;;;;;;;3.92;69.95;101457.34;470066;110;922626;-84
2021/11/12 06:55:45;;;;;;;8.08;4.79;;;;;;;3.93;69.95;101457.20;470903;110;922484;-85
2021/11/12 06:56:49;;;;;;;4.87;4.31;;;;;;;3.96;69.97;101462.31;472095;110;930031;-85
2021/11/12 06:57:52;;;;;;;4.78;4.38;;;;;;;3.99;69.98;101453.05;472397;110;922139;-84
2021/11/12 06:58:57;;;;;;;4.88;4.22;;;;;;;4.00;69.92;101458.31;470946;110;922290;-85
2021/11/12 07:00:07;;;;;;;5.02;4.58;;;;;;;4.03;69.90;101462.53;463775;112;922323;-84
2021/11/12 07:01:11;;;;;;;5.18;4.04;;;;;;;4.04;69.93;101457.00;464775;112;922515;-85
2021/11/12 07:02:18;;;;;;;6.94;4.15;;;;;;;4.09;69.92;101459.23;471330;110;922497;-83
2021/11/12 07:03:23;;;;;;;5.64;4.37;;;;;;;4.11;69.91;101451.84;470096;110;922700;-84
2021/11/12 07:04:27;;;;;;;5.11;3.97;;;;;;;4.12;69.88;101450.86;470841;110;922463;-85
2021/11/12 07:05:31;;;;;;;6.39;4.32;;;;;;;4.13;69.88;101455.26;471193;110;923494;-83
2021/11/12 07:06:36;;;;;;;4.20;3.64;;;;;;;4.15;69.92;101445.14;471574;110;922589;-86
2021/11/12 07:07:40;;;;;;;3.59;3.26;;;;;;;4.17;69.92;101454.80;470205;110;930423;-81
2021/11/12 07:08:44;;;;;;;3.98;3.45;;;;;;;4.20;69.94;101453.63;469281;110;922603;-84
2021/11/12 07:09:49;;;;;;;4.16;3.64;;;;;;;4.24;69.90;101460.44;468562;110;930661;-85
2021/11/12 07:10:53;;;;;;;4.14;3.48;;;;;;;4.27;69.91;101452.02;468329;110;922466;-89
2021/11/12 07:11:57;;;;;;;5.26;3.56;;;;;;;4.31;69.83;101448.00;469290;110;922728;-85
2021/11/12 07:13:01;;;;;;;5.04;4.46;;;;;;;4.35;69.85;101449.42;461380;114;922635;-85
2021/11/12 07:14:07;;;;;;;7.46;3.59;;;;;;;4.41;69.77;101443.37;459667;112;930473;-86
2021/11/12 07:15:12;;;;;;;6.22;4.12;;;;;;;4.48;69.69;101443.62;462940;113;923697;-87
2021/11/12 07:16:17;;;;;;;5.24;3.83;;;;;;;4.53;69.58;101436.75;460658;114;922555;-86
2021/11/12 07:17:21;;;;;;;5.81;3.49;;;;;;;4.58;69.46;101437.13;460280;114;922432;-89
2021/11/12 07:18:27;;;;;;;3.35;3.05;;;;;;;4.64;69.37;101446.47;458344;114;930833;-87
2021/11/12 07:19:31;;;;;;;4.79;3.67;;;;;;;4.69;69.28;101451.39;455203;114;922838;-85
2021/11/12 07:20:37;;;;;;;3.63;3.27;;;;;;;4.75;69.20;101445.38;458410;114;922621;-86
2021/11/12 07:21:42;;;;;;;5.55;3.59;;;;;;;4.81;69.05;101447.45;458285;114;922481;-85
2021/11/12 07:22:47;;;;;;;3.79;3.34;;;;;;;4.84;68.96;101444.45;458418;114;922826;-87
2021/11/12 07:23:51;;;;;;;7.94;3.86;;;;;;;4.88;68.82;101446.68;449612;116;922541;-85
2021/11/12 07:24:55;;;;;;;3.29;2.81;;;;;;;4.92;68.81;101439.95;459279;113;922957;-87
2021/11/12 07:25:59;;;;;;;7.87;3.98;;;;;;;4.96;68.69;101443.20;458131;113;930484;-87
2021/11/12 07:27:05;;;;;;;9.67;3.09;;;;;;;4.99;68.62;101438.33;454371;114;922295;-85
2021/11/12 07:28:10;;;;;;;3.43;3.13;;;;;;;5.03;68.57;101433.44;453733;114;930591;-88
2021/11/12 07:29:23;;;;;;;5.05;3.26;;;;;;;5.10;68.49;101439.06;451150;114;922779;-83
2021/11/12 07:30:31;;;;;;;4.18;3.29;;;;;;;5.15;68.41;101429.47;437065;118;923063;-85
2021/11/12 07:31:38;;;;;;;3.44;2.96;;;;;;;5.21;68.25;101438.80;458693;112;922824;-86
2021/11/12 07:32:43;;;;;;;5.76;3.29;;;;;;;5.26;68.13;101440.02;467563;110;930824;-84
2021/11/12 07:33:48;;;;;;;4.41;2.64;;;;;;;5.31;67.97;101434.13;459122;113;922629;-84
2021/11/12 07:34:53;;;;;;;4.00;3.22;;;;;;;5.35;67.85;101433.64;452526;114;922764;-88
2021/11/12 07:36:09;;;;;;;2.96;2.58;;;;;;;5.40;67.70;101435.89;451973;114;922603;-83
2021/11/12 07:37:12;;;;;;;4.22;3.07;;;;;;;5.43;67.54;101427.44;459207;112;922653;-85
2021/11/12 07:38:31;;;;;;;4.34;2.84;;;;;;;5.52;67.41;101412.94;450950;116;922211;-83
2021/11/12 07:39:39;;;;;;;4.29;3.14;;;;;;;5.52;67.41;101412.94;461085;110;922587;-83
2021/11/12 07:40:48;;;;;;;6.74;3.58;;;;;;;5.56;67.29;101419.75;459060;114;922311;-85
2021/11/12 07:44:54;;;;;;;5.00;3.25;;;;;;;5.70;66.64;101411.00;466233;110;922806;-86
2021/11/12 07:47:13;;;;;;;4.35;3.31;;;;;;;5.74;66.57;101412.36;469146;110;922180;-81
2021/11/12 07:48:17;;;;;;;5.91;3.03;;;;;;;5.74;66.47;101404.25;470068;110;922441;-84
2021/11/12 07:49:21;;;;;;;5.57;3.22;;;;;;;5.75;66.40;101416.77;470510;110;922185;-84
2021/11/12 07:50:26;;;;;;;6.54;3.21;;;;;;;5.75;66.36;101408.66;470868;110;922484;-82
2021/11/12 07:51:30;;;;;;;5.12;3.31;;;;;;;5.77;66.31;101400.38;470496;110;922853;-83
2021/11/12 07:52:38;;;;;;;4.64;3.21;;;;;;;5.77;66.27;101401.23;450386;116;922484;-84
2021/11/12 07:53:42;;;;;;;4.98;3.65;;;;;;;5.79;66.26;101403.75;461087;110;922540;-86
2021/11/12 07:54:47;;;;;;;10.38;3.95;;;;;;;5.79;66.24;101392.92;459275;114;922575;-84
2021/11/12 07:55:53;;;;;;;5.06;3.64;;;;;;;5.80;66.22;101394.62;453755;114;923134;-85
2021/11/12 07:57:00;;;;;;;5.03;3.42;;;;;;;5.81;66.21;101402.59;457780;114;922745;-85